Time;durP1;ratioP1;P1;durP2;ratioP2;P2;SDS_P1;SDS_P2;PMS_P1;PMS_P2;Temp;Humidity;BMP_temperature;BMP_pressure;BME280_temperature;BME280_humidity;BME280_pressure;Samples;Min_cycle;Max_cycle;Signal;HPM_P1;HPM_P2
2022/12/26 00:01:33;;;;;;;16.70;11.73;;;8.00;99.90;;;;;;5074276;28;20040;-77
2022/12/26 00:03:59;;;;;;;17.38;12.55;;;8.00;99.90;;;;;;5085019;28;20024;-76
2022/12/26 00:06:27;;;;;;;18.38;12.73;;;8.00;99.90;;;;;;5094496;28;20032;-77
2022/12/26 00:08:54;;;;;;;15.70;11.07;;;8.00;99.90;;;;;;5094655;28;20497;-76
2022/12/26 00:11:20;;;;;;;18.00;11.63;;;8.00;99.90;;;;;;5094574;28;20028;-76
2022/12/26 00:13:46;;;;;;;16.88;11.98;;;7.80;99.90;;;;;;5093539;28;20020;-77
2022/12/26 00:16:17;;;;;;;16.60;11.45;;;7.90;99.90;;;;;;5094231;28;20077;-77
2022/12/26 00:18:44;;;;;;;15.98;10.77;;;7.90;99.90;;;;;;5094527;28;20016;-77
2022/12/26 00:21:12;;;;;;;14.50;10.45;;;7.80;99.90;;;;;;5090930;28;20037;-77
2022/12/26 00:23:38;;;;;;;16.77;10.52;;;7.60;99.90;;;;;;5074170;28;20020;-77
2022/12/26 00:26:16;;;;;;;15.27;10.02;;;7.70;99.90;;;;;;5073689;28;20024;-76
2022/12/26 00:28:42;;;;;;;13.10;9.88;;;7.70;99.90;;;;;;5073429;28;20059;-77
2022/12/26 00:31:14;;;;;;;14.95;10.25;;;7.80;99.90;;;;;;5073833;28;20123;-76
2022/12/26 00:33:40;;;;;;;14.98;10.60;;;7.90;99.90;;;;;;5072768;28;20039;-77
2022/12/26 00:36:11;;;;;;;15.20;10.45;;;7.80;99.90;;;;;;5073401;28;20017;-76
2022/12/26 00:38:39;;;;;;;15.25;9.35;;;7.80;99.90;;;;;;5073833;28;20029;-76
2022/12/26 00:41:06;;;;;;;13.30;9.88;;;7.80;99.90;;;;;;5073122;28;20032;-77
2022/12/26 00:43:32;;;;;;;12.85;9.25;;;7.80;99.90;;;;;;5073205;28;20032;-76
2022/12/26 00:45:58;;;;;;;12.35;9.05;;;7.90;99.90;;;;;;5073507;28;20543;-77
2022/12/26 00:48:24;;;;;;;13.02;9.48;;;7.80;99.90;;;;;;5073648;28;20077;-77
2022/12/26 00:50:50;;;;;;;11.18;8.02;;;7.80;99.90;;;;;;5073129;28;20036;-77
2022/12/26 00:53:16;;;;;;;10.23;8.05;;;7.80;99.90;;;;;;5073571;28;20033;-77
2022/12/26 00:55:41;;;;;;;12.77;8.35;;;7.60;99.90;;;;;;5073192;28;20036;-76
2022/12/26 00:58:07;;;;;;;10.20;7.95;;;7.70;99.90;;;;;;5073371;28;20024;-76
2022/12/26 01:00:33;;;;;;;12.88;8.88;;;7.50;99.90;;;;;;5072960;28;20024;-76
2022/12/26 01:02:59;;;;;;;12.02;8.82;;;7.60;99.90;;;;;;5075256;28;20032;-77
2022/12/26 01:05:24;;;;;;;10.23;7.70;;;7.50;99.90;;;;;;5093693;28;20099;-77
2022/12/26 01:07:50;;;;;;;12.60;9.02;;;7.50;99.90;;;;;;5093226;28;20485;-77
2022/12/26 01:10:16;;;;;;;12.48;8.88;;;7.60;99.90;;;;;;5092948;28;20092;-77
2022/12/26 01:12:41;;;;;;;11.82;8.68;;;7.60;99.90;;;;;;5093075;28;20388;-76
2022/12/26 01:15:07;;;;;;;17.33;9.73;;;7.60;99.90;;;;;;5092874;28;20096;-77
2022/12/26 01:17:34;;;;;;;12.65;9.18;;;7.70;99.90;;;;;;5093071;28;20016;-77
2022/12/26 01:19:59;;;;;;;12.10;8.65;;;7.70;99.90;;;;;;5093079;28;20035;-77
2022/12/26 01:22:26;;;;;;;12.57;8.60;;;7.60;99.90;;;;;;5079314;28;20024;-77
2022/12/26 01:24:56;;;;;;;13.38;9.43;;;7.60;99.90;;;;;;5072674;28;20114;-77
2022/12/26 01:27:23;;;;;;;12.75;8.02;;;7.60;99.90;;;;;;5072172;28;20076;-77
2022/12/26 01:29:49;;;;;;;11.65;8.85;;;7.70;99.90;;;;;;5072352;28;20024;-77
2022/12/26 01:32:16;;;;;;;12.07;8.40;;;7.70;99.90;;;;;;5072463;28;20053;-76
2022/12/26 01:34:42;;;;;;;10.70;8.32;;;7.70;99.90;;;;;;5072798;28;20017;-77
2022/12/26 01:37:11;;;;;;;9.32;7.50;;;7.80;99.90;;;;;;5072370;28;20060;-76
2022/12/26 01:39:36;;;;;;;11.65;7.72;;;7.80;99.90;;;;;;5072303;28;20247;-76
2022/12/26 01:42:02;;;;;;;12.65;7.57;;;7.70;99.90;;;;;;5072451;28;20378;-77
2022/12/26 01:44:56;;;;;;;12.68;7.25;;;7.70;99.90;;;;;;5072232;28;20566;-77
2022/12/26 01:47:24;;;;;;;10.20;7.05;;;7.90;99.90;;;;;;5072314;28;20032;-76
2022/12/26 01:49:52;;;;;;;9.27;6.78;;;7.80;99.90;;;;;;5072402;28;20024;-77
2022/12/26 01:52:35;;;;;;;8.32;6.20;;;7.70;99.90;;;;;;5072328;28;20032;-77
2022/12/26 01:55:04;;;;;;;9.60;6.97;;;7.80;99.90;;;;;;5072116;28;20052;-77
2022/12/26 01:57:38;;;;;;;11.45;7.15;;;7.70;99.90;;;;;;5072020;28;20078;-77
2022/12/26 02:00:06;;;;;;;12.15;7.22;;;7.60;99.90;;;;;;5072167;28;20073;-77
2022/12/26 02:05:32;;;;;;;13.70;7.75;;;7.60;99.90;;;;;;5072070;28;20016;-77
2022/12/26 02:05:34;;;;;;;9.68;6.88;;;7.50;99.90;;;;;;5052472;28;20040;-77
2022/12/26 02:08:14;;;;;;;12.35;8.30;;;7.60;99.90;;;;;;5052055;28;20025;-77
2022/12/26 02:10:55;;;;;;;11.57;7.95;;;7.50;99.90;;;;;;5052377;28;20025;-77
2022/12/26 02:13:22;;;;;;;12.70;8.27;;;7.40;99.90;;;;;;5051974;28;20021;-77
2022/12/26 02:15:47;;;;;;;11.85;8.45;;;7.40;99.90;;;;;;5051851;28;20029;-76
2022/12/26 02:18:13;;;;;;;14.05;8.80;;;7.50;99.90;;;;;;5051819;28;20021;-77
2022/12/26 02:20:59;;;;;;;12.13;8.15;;;7.50;99.90;;;;;;5052433;28;20502;-77
2022/12/26 02:23:46;;;;;;;14.27;8.45;;;7.40;99.90;;;;;;5041329;28;20110;-76
2022/12/26 02:26:18;;;;;;;12.55;8.60;;;7.40;99.90;;;;;;5051894;28;20021;-77
2022/12/26 02:28:53;;;;;;;10.95;7.68;;;7.40;99.90;;;;;;5051586;28;20128;-77
2022/12/26 02:31:27;;;;;;;11.90;7.70;;;7.40;99.90;;;;;;5051986;28;20044;-77
2022/12/26 02:34:09;;;;;;;11.68;7.40;;;7.40;99.90;;;;;;5052121;28;20111;-77
2022/12/26 02:36:49;;;;;;;10.88;7.05;;;7.40;99.90;;;;;;5051708;28;20032;-77
2022/12/26 02:39:39;;;;;;;10.55;7.32;;;7.60;99.90;;;;;;5071515;28;20024;-77
2022/12/26 02:42:13;;;;;;;9.85;7.57;;;7.50;99.90;;;;;;5071769;28;20039;-76
2022/12/26 02:48:01;;;;;;;11.55;7.07;;;7.40;99.90;;;;;;5072103;28;20081;-77
2022/12/26 03:15:03;;;;;;;17.30;8.48;;;7.20;99.90;;;;;;5013217;28;20044;-77
2022/12/26 03:17:35;;;;;;;16.38;8.98;;;7.30;99.90;;;;;;5012818;28;20054;-77
2022/12/26 03:20:14;;;;;;;16.33;8.75;;;7.30;99.90;;;;;;5012969;28;20120;-77
2022/12/26 03:22:48;;;;;;;12.80;8.07;;;7.20;99.90;;;;;;5028216;28;20531;-77
2022/12/26 03:28:23;;;;;;;14.93;8.05;;;7.20;99.90;;;;;;5032362;28;20076;-77
2022/12/26 03:30:49;;;;;;;14.52;8.65;;;7.10;99.90;;;;;;5032375;28;20057;-77
2022/12/26 03:36:57;;;;;;;13.10;7.88;;;7.00;99.90;;;;;;5032584;28;20044;-77
2022/12/26 04:20:56;;;;;;;14.38;8.25;;;6.90;99.90;;;;;;5094394;28;20034;-77
2022/12/26 04:46:24;;;;;;;11.27;7.00;;;6.80;99.90;;;;;;5073870;28;20548;-77
2022/12/26 04:51:36;;;;;;;13.57;7.20;;;6.70;99.90;;;;;;5073471;28;20051;-77
2022/12/26 04:54:02;;;;;;;11.63;6.45;;;6.70;99.90;;;;;;5073607;28;20032;-77
2022/12/26 04:56:28;;;;;;;13.65;8.43;;;6.70;99.90;;;;;;5073399;28;20100;-77
2022/12/26 04:58:54;;;;;;;12.38;7.28;;;6.60;99.90;;;;;;5072966;28;20111;-77
2022/12/26 05:09:34;;;;;;;12.43;8.10;;;6.70;99.90;;;;;;5093710;28;20054;-77
2022/12/26 05:12:03;;;;;;;14.50;8.40;;;6.60;99.90;;;;;;5093174;28;20077;-77
2022/12/26 05:14:30;;;;;;;16.65;9.35;;;6.60;99.90;;;;;;5093130;28;20031;-77
2022/12/26 05:30:58;;;;;;;12.40;7.25;;;6.80;99.90;;;;;;5072452;28;20454;-77
2022/12/26 05:36:09;;;;;;;10.70;6.95;;;6.80;99.90;;;;;;5072595;28;20491;-77
2022/12/26 05:38:35;;;;;;;10.52;6.70;;;6.70;99.90;;;;;;5072722;28;20128;-77
2022/12/26 05:41:02;;;;;;;11.48;6.20;;;6.70;99.90;;;;;;5072349;28;20098;-77
2022/12/26 05:43:27;;;;;;;9.57;5.95;;;6.80;99.90;;;;;;5072377;28;20474;-77
2022/12/26 05:45:53;;;;;;;9.43;5.82;;;6.90;99.90;;;;;;5072363;28;20108;-77
2022/12/26 05:48:19;;;;;;;9.75;5.90;;;6.80;99.90;;;;;;5072503;28;20417;-77
2022/12/26 05:50:44;;;;;;;10.45;5.68;;;6.90;99.90;;;;;;5072299;28;20398;-77
2022/12/26 05:53:10;;;;;;;7.80;5.38;;;6.80;99.90;;;;;;5072433;28;20020;-77
2022/12/26 05:55:36;;;;;;;8.35;5.90;;;6.80;99.90;;;;;;5072469;28;20021;-77
2022/12/26 05:58:02;;;;;;;8.68;5.40;;;6.80;99.90;;;;;;5070736;28;20043;-77
2022/12/26 06:00:29;;;;;;;7.10;5.45;;;6.80;99.90;;;;;;5071859;28;20032;-77
2022/12/26 06:02:54;;;;;;;7.95;5.20;;;6.80;99.90;;;;;;5073623;28;20119;-77
2022/12/26 06:05:20;;;;;;;8.60;5.10;;;6.80;99.90;;;;;;5092445;28;20481;-77
2022/12/26 06:07:46;;;;;;;8.02;5.25;;;6.90;99.90;;;;;;5090929;28;20400;-77
2022/12/26 06:10:12;;;;;;;8.05;5.30;;;6.80;99.90;;;;;;5092586;28;20031;-77
2022/12/26 06:12:38;;;;;;;7.60;5.22;;;6.70;99.90;;;;;;5090682;28;20036;-77
2022/12/26 06:15:05;;;;;;;7.80;5.68;;;6.80;99.90;;;;;;5091909;28;20054;-77
2022/12/26 06:17:30;;;;;;;10.02;5.47;;;6.90;99.90;;;;;;5092235;28;20062;-77
2022/12/26 06:19:56;;;;;;;9.02;5.63;;;7.00;99.90;;;;;;5092198;28;20044;-77
2022/12/26 06:22:22;;;;;;;9.65;6.10;;;6.90;99.90;;;;;;5079217;28;20429;-77
2022/12/26 06:24:47;;;;;;;8.93;5.55;;;6.90;99.90;;;;;;5072177;28;20548;-77
2022/12/26 06:27:13;;;;;;;6.90;4.82;;;6.80;99.90;;;;;;5071779;28;20659;-77
2022/12/26 06:29:39;;;;;;;8.73;5.85;;;6.80;99.90;;;;;;5071802;28;20029;-77
2022/12/26 06:32:05;;;;;;;8.30;5.05;;;6.60;99.90;;;;;;5074142;28;20405;-77
2022/12/26 06:34:30;;;;;;;6.45;4.82;;;6.70;99.90;;;;;;5076164;28;20107;-77
2022/12/26 06:36:56;;;;;;;7.90;5.57;;;6.70;99.90;;;;;;5075941;28;20017;-77
2022/12/26 06:39:23;;;;;;;6.53;5.35;;;6.70;99.90;;;;;;5075995;28;20517;-77
2022/12/26 06:41:49;;;;;;;8.15;5.55;;;6.70;99.90;;;;;;5075519;28;20021;-77
2022/12/26 06:44:15;;;;;;;8.30;5.20;;;6.70;99.90;;;;;;5075494;28;20032;-77
2022/12/26 06:46:41;;;;;;;8.35;5.45;;;6.60;99.90;;;;;;5075808;28;20016;-77
2022/12/26 06:49:07;;;;;;;8.68;6.30;;;6.60;99.90;;;;;;5075955;28;20485;-77
2022/12/26 06:51:34;;;;;;;9.27;5.72;;;6.60;99.90;;;;;;5075328;28;20032;-77
2022/12/26 06:54:03;;;;;;;8.98;5.78;;;6.60;99.90;;;;;;5075876;28;20017;-77
2022/12/26 06:56:31;;;;;;;9.48;6.57;;;6.60;99.90;;;;;;5075743;28;20029;-77
2022/12/26 06:59:02;;;;;;;9.80;6.38;;;6.50;99.90;;;;;;5075067;28;20021;-77
2022/12/26 07:01:30;;;;;;;9.57;6.88;;;6.60;99.90;;;;;;5075532;28;20171;-77
2022/12/26 07:03:56;;;;;;;11.00;6.72;;;6.50;99.90;;;;;;5085416;28;20024;-77
2022/12/26 07:06:24;;;;;;;11.07;7.22;;;6.50;99.90;;;;;;5095823;28;20028;-77
2022/12/26 07:08:50;;;;;;;9.90;6.47;;;6.50;99.90;;;;;;5095369;28;20031;-79
2022/12/26 07:11:18;;;;;;;12.05;7.88;;;6.50;99.90;;;;;;5095704;28;20031;-77
2022/12/26 07:13:44;;;;;;;11.70;7.93;;;6.50;99.90;;;;;;5095108;28;20027;-79
2022/12/26 07:16:10;;;;;;;11.18;7.70;;;6.40;99.90;;;;;;5095317;28;20032;-77
2022/12/26 07:18:36;;;;;;;9.75;6.82;;;6.50;99.90;;;;;;5095457;28;20493;-79
2022/12/26 07:21:07;;;;;;;9.88;7.20;;;6.50;99.90;;;;;;5093170;28;20024;-79
2022/12/26 07:23:33;;;;;;;10.33;6.80;;;6.40;99.90;;;;;;5075014;28;20020;-79
2022/12/26 07:25:59;;;;;;;8.55;6.72;;;6.40;99.90;;;;;;5074900;28;20034;-79
2022/12/26 07:28:25;;;;;;;10.55;6.07;;;6.40;99.90;;;;;;5074270;28;20040;-77
2022/12/26 07:30:51;;;;;;;8.77;6.15;;;6.30;99.90;;;;;;5074994;28;20033;-77
2022/12/26 07:33:16;;;;;;;7.90;5.88;;;6.20;99.90;;;;;;5075173;28;20024;-77
2022/12/26 07:35:42;;;;;;;9.07;6.47;;;6.30;99.90;;;;;;5075117;28;20531;-77
2022/12/26 07:38:08;;;;;;;9.25;6.18;;;6.20;99.90;;;;;;5074279;28;20027;-79
2022/12/26 07:40:34;;;;;;;8.25;5.97;;;6.10;99.90;;;;;;5074955;28;20013;-78
2022/12/26 07:43:00;;;;;;;8.45;5.70;;;6.30;99.90;;;;;;5074042;28;20082;-79
2022/12/26 07:45:26;;;;;;;6.40;5.40;;;6.20;99.90;;;;;;5074670;28;20474;-77
2022/12/26 07:47:55;;;;;;;7.82;5.63;;;6.30;99.90;;;;;;5074858;28;20462;-79
2022/12/26 07:50:22;;;;;;;8.18;5.53;;;6.30;99.90;;;;;;5073457;28;20020;-77
2022/12/26 07:52:48;;;;;;;6.40;5.00;;;6.30;99.90;;;;;;5074276;28;20028;-78
2022/12/26 07:55:14;;;;;;;7.18;5.05;;;6.30;99.90;;;;;;5074676;28;20094;-79
2022/12/26 07:57:39;;;;;;;8.55;6.13;;;6.30;99.90;;;;;;5074277;28;20027;-77
2022/12/26 08:00:07;;;;;;;6.72;5.35;;;6.40;99.90;;;;;;5072899;28;20111;-77
2022/12/26 08:02:33;;;;;;;7.07;4.90;;;6.40;99.90;;;;;;5074645;28;20028;-77
2022/12/26 08:04:58;;;;;;;6.05;4.90;;;6.60;99.90;;;;;;5092919;28;20099;-79
2022/12/26 08:07:24;;;;;;;7.18;5.47;;;6.50;99.90;;;;;;5094624;28;20024;-79
2022/12/26 08:09:50;;;;;;;6.65;5.10;;;6.50;99.90;;;;;;5094598;28;20027;-79
2022/12/26 08:12:20;;;;;;;7.38;5.28;;;6.50;99.90;;;;;;5093885;28;20024;-77
2022/12/26 08:14:46;;;;;;;7.28;5.10;;;6.60;99.90;;;;;;5094334;28;20016;-77
2022/12/26 08:17:11;;;;;;;7.53;4.90;;;6.70;99.90;;;;;;5094623;28;20016;-77
2022/12/26 08:19:37;;;;;;;6.00;4.82;;;6.50;99.90;;;;;;5094587;28;20483;-77
2022/12/26 08:22:03;;;;;;;7.25;5.05;;;6.70;99.90;;;;;;5083819;28;20025;-77
2022/12/26 08:24:29;;;;;;;5.68;4.60;;;6.70;99.90;;;;;;5073880;28;20035;-77
2022/12/26 08:26:54;;;;;;;8.25;4.68;;;6.60;99.90;;;;;;5073516;28;20505;-77
2022/12/26 08:29:20;;;;;;;5.53;4.50;;;6.80;99.90;;;;;;5073783;28;20488;-79
2022/12/26 08:31:46;;;;;;;6.22;5.38;;;6.90;99.90;;;;;;5073896;28;20416;-78
2022/12/26 08:34:12;;;;;;;6.90;4.72;;;7.10;99.90;;;;;;5073937;28;20461;-77
2022/12/26 08:36:38;;;;;;;7.25;5.68;;;7.10;99.90;;;;;;5073947;28;20027;-77
2022/12/26 08:39:04;;;;;;;6.18;5.47;;;7.10;99.90;;;;;;5073362;28;20017;-77
2022/12/26 08:41:29;;;;;;;6.85;5.45;;;7.10;99.90;;;;;;5073571;28;20021;-77
2022/12/26 08:43:55;;;;;;;9.07;5.30;;;7.30;99.90;;;;;;5073653;28;20033;-77
2022/12/26 08:46:21;;;;;;;7.88;5.85;;;7.50;99.90;;;;;;5073551;28;20024;-77
2022/12/26 08:48:48;;;;;;;8.52;6.85;;;7.80;99.90;;;;;;5073540;28;20024;-77
2022/12/26 08:51:24;;;;;;;12.30;8.15;;;7.80;99.90;;;;;;5073437;28;20032;-77
2022/12/26 08:53:51;;;;;;;11.45;7.63;;;7.80;99.90;;;;;;5072357;28;20024;-77
2022/12/26 08:56:20;;;;;;;12.00;7.80;;;7.90;99.90;;;;;;5073345;28;20021;-77
2022/12/26 08:58:47;;;;;;;12.25;8.43;;;8.10;99.90;;;;;;5073239;28;20133;-77
2022/12/26 09:01:21;;;;;;;12.27;7.68;;;8.20;99.90;;;;;;5073452;28;20163;-77
2022/12/26 09:03:50;;;;;;;10.57;7.95;;;8.40;99.90;;;;;;5081780;28;20060;-80
2022/12/26 09:06:16;;;;;;;9.73;7.88;;;9.70;99.90;;;;;;5093352;28;20030;-77
2022/12/26 09:08:42;;;;;;;11.13;7.97;;;10.50;99.90;;;;;;5093173;28;20028;-77
2022/12/26 09:11:11;;;;;;;10.20;8.38;;;11.50;99.90;;;;;;5093240;28;20478;-77
2022/12/26 09:13:38;;;;;;;9.80;7.75;;;12.90;99.90;;;;;;5093048;28;20473;-77
2022/12/26 09:16:13;;;;;;;8.50;7.15;;;13.80;99.90;;;;;;5093293;28;20028;-77
2022/12/26 09:18:40;;;;;;;7.82;6.55;;;12.70;99.90;;;;;;5093073;28;20083;-77
2022/12/26 09:21:07;;;;;;;8.82;7.00;;;11.50;99.90;;;;;;5090627;28;20028;-78
2022/12/26 09:23:34;;;;;;;8.45;6.25;;;10.70;99.90;;;;;;5072681;28;20052;-78
2022/12/26 09:26:05;;;;;;;9.38;6.88;;;10.50;99.90;;;;;;5072871;28;20024;-78
2022/12/26 09:28:31;;;;;;;9.02;7.40;;;10.40;99.90;;;;;;5071126;28;20543;-78
2022/12/26 09:31:14;;;;;;;8.45;7.13;;;10.40;99.90;;;;;;5072294;28;20036;-78
2022/12/26 09:33:41;;;;;;;8.50;6.82;;;10.50;99.90;;;;;;5072468;28;20021;-78
2022/12/26 09:36:12;;;;;;;7.95;6.72;;;10.60;99.90;;;;;;5072824;28;20024;-78
2022/12/26 09:38:38;;;;;;;8.48;6.60;;;10.60;99.90;;;;;;5072651;28;20072;-78
2022/12/26 09:41:30;;;;;;;9.15;6.95;;;10.60;99.90;;;;;;5072374;28;20063;-78
2022/12/26 09:44:04;;;;;;;11.13;7.47;;;10.70;99.90;;;;;;5072588;28;20029;-78
2022/12/26 09:46:58;;;;;;;8.43;7.18;;;10.80;99.90;;;;;;5072552;28;20893;-78
2022/12/26 09:49:32;;;;;;;10.45;7.25;;;10.80;99.90;;;;;;5072466;28;20028;-78
2022/12/26 09:52:08;;;;;;;9.93;6.95;;;11.00;99.90;;;;;;5072303;28;20031;-78
2022/12/26 09:54:52;;;;;;;10.80;7.03;;;11.10;99.90;;;;;;5072405;28;20028;-78
2022/12/26 09:57:26;;;;;;;9.68;7.15;;;11.20;99.90;;;;;;5072266;28;20012;-78
2022/12/26 09:59:59;;;;;;;8.23;6.45;;;11.20;99.90;;;;;;5072216;28;20028;-78
2022/12/26 10:02:25;;;;;;;9.40;6.63;;;11.30;99.90;;;;;;5072405;28;20020;-78
2022/12/26 10:04:53;;;;;;;8.48;6.53;;;11.50;99.90;;;;;;5089874;28;20035;-78
2022/12/26 10:07:45;;;;;;;8.02;6.38;;;11.50;99.90;;;;;;5092235;28;20488;-78
2022/12/26 10:10:12;;;;;;;;;;;11.50;99.90;;;;;;5093090;28;20560;-78
2022/12/26 10:12:45;;;;;;;7.55;6.28;;;11.50;99.90;;;;;;5092373;28;19912;-78
2022/12/26 10:15:26;;;;;;;6.57;5.82;;;11.60;99.90;;;;;;5092273;28;20027;-78
2022/12/26 10:18:35;;;;;;;7.50;6.18;;;11.70;99.90;;;;;;5092426;28;20095;-78
2022/12/26 10:21:00;;;;;;;7.38;6.07;;;11.80;99.90;;;;;;5089924;28;20111;-78
2022/12/26 10:23:31;;;;;;;8.48;5.88;;;11.80;99.90;;;;;;5072358;28;20159;-78
2022/12/26 10:26:04;;;;;;;8.90;5.47;;;11.80;99.90;;;;;;5072227;28;20048;-78
2022/12/26 10:28:35;;;;;;;7.15;6.20;;;11.90;99.90;;;;;;5071792;28;20044;-78
2022/12/26 10:31:04;;;;;;;;;;;12.10;99.90;;;;;;5071962;28;20033;-78
2022/12/26 10:33:52;;;;;;;7.32;5.72;;;12.00;99.90;;;;;;5072140;28;19912;-78
2022/12/26 10:36:39;;;;;;;9.48;6.10;;;12.10;99.90;;;;;;5071715;28;20017;-78
2022/12/26 10:39:24;;;;;;;10.05;6.20;;;12.10;99.90;;;;;;5071946;28;20083;-78
2022/12/26 10:41:54;;;;;;;8.73;6.43;;;12.40;99.90;;;;;;5071437;28;20047;-78
2022/12/26 10:44:20;;;;;;;10.63;7.72;;;12.50;99.90;;;;;;5071837;28;20055;-78
2022/12/26 10:47:05;;;;;;;14.18;8.30;;;12.70;99.90;;;;;;5071974;28;20020;-78
2022/12/26 10:49:31;;;;;;;11.73;7.72;;;12.80;99.90;;;;;;5071408;28;20060;-78
2022/12/26 10:51:59;;;;;;;9.30;7.43;;;12.80;99.90;;;;;;5072023;28;20115;-78
2022/12/26 10:54:27;;;;;;;11.15;7.90;;;13.00;99.90;;;;;;5071886;28;20052;-78
2022/12/26 10:56:55;;;;;;;14.05;8.40;;;13.10;99.90;;;;;;5071323;28;20096;-78
2022/12/26 10:59:44;;;;;;;16.05;9.07;;;13.20;99.90;;;;;;5071925;28;20020;-78
2022/12/26 11:02:22;;;;;;;16.25;9.32;;;13.50;99.90;;;;;;5071750;28;20332;-78
2022/12/26 11:04:59;;;;;;;14.02;9.48;;;13.70;99.90;;;;;;5088501;28;20481;-78
2022/12/26 11:07:29;;;;;;;12.27;8.95;;;13.60;99.90;;;;;;5091995;28;20024;-78
2022/12/26 11:09:58;;;;;;;12.45;8.23;;;13.50;99.90;;;;;;5092064;28;20031;-78
2022/12/26 11:12:51;;;;;;;12.27;8.95;;;13.60;99.90;;;;;;5091498;28;20016;-78
2022/12/26 11:15:27;;;;;;;11.63;7.72;;;13.60;99.90;;;;;;5091679;28;20099;-78
2022/12/26 11:17:54;;;;;;;12.10;8.40;;;13.70;99.90;;;;;;5093452;28;20055;-78
2022/12/26 11:20:25;;;;;;;11.60;8.60;;;13.70;99.90;;;;;;5095461;28;20039;-78
2022/12/26 11:22:50;;;;;;;11.97;8.10;;;14.00;99.90;;;;;;5078076;28;20059;-78
2022/12/26 11:25:21;;;;;;;11.45;7.68;;;14.00;99.90;;;;;;5075476;28;20062;-78
2022/12/26 11:27:55;;;;;;;11.13;7.85;;;14.20;99.90;;;;;;5074469;28;20044;-78
2022/12/26 11:30:32;;;;;;;11.07;7.75;;;14.20;99.90;;;;;;5074633;28;20021;-78
2022/12/26 11:33:26;;;;;;;10.68;7.65;;;14.30;99.90;;;;;;5074818;28;20044;-78
2022/12/26 11:36:10;;;;;;;12.85;7.63;;;14.40;99.90;;;;;;5075145;28;20025;-78
2022/12/26 11:38:47;;;;;;;13.20;7.93;;;14.40;99.90;;;;;;5075026;28;20492;-78
2022/12/26 11:41:31;;;;;;;10.15;7.45;;;14.40;99.90;;;;;;5074764;28;20024;-78
2022/12/26 11:44:14;;;;;;;11.50;8.38;;;14.40;99.90;;;;;;5074920;28;20028;-78
2022/12/26 11:47:07;;;;;;;12.40;8.48;;;14.50;99.90;;;;;;5074721;28;20516;-78
2022/12/26 11:49:39;;;;;;;11.68;8.20;;;14.50;99.90;;;;;;5074338;28;20020;-78
2022/12/26 11:52:30;;;;;;;11.57;7.47;;;14.50;99.90;;;;;;5074729;28;20024;-78
2022/12/26 11:54:55;;;;;;;14.10;8.45;;;14.70;99.90;;;;;;5074635;28;20021;-78
2022/12/26 11:57:27;;;;;;;10.93;7.90;;;14.80;99.90;;;;;;5074674;28;20540;-78
2022/12/26 11:59:54;;;;;;;13.20;8.00;;;14.80;99.90;;;;;;5074122;28;20070;-78
2022/12/26 12:02:26;;;;;;;9.52;7.55;;;14.80;99.90;;;;;;5074394;28;20101;-78
2022/12/26 12:04:57;;;;;;;13.02;8.25;;;14.50;99.90;;;;;;5092152;28;20027;-78
2022/12/26 12:07:45;;;;;;;13.55;8.60;;;14.70;99.90;;;;;;5094839;28;20035;-78
2022/12/26 12:10:31;;;;;;;13.68;8.20;;;14.60;99.90;;;;;;5031823;28;20183;-78
2022/12/26 12:13:46;;;;;;;11.07;7.30;;;14.40;99.90;;;;;;5031498;28;20099;-78
2022/12/26 12:16:43;;;;;;;12.88;7.80;;;14.40;99.90;;;;;;4934298;29;20040;-77
2022/12/26 12:19:23;;;;;;;13.38;8.20;;;14.40;99.90;;;;;;4934388;29;20040;-77
2022/12/26 12:21:55;;;;;;;13.63;7.85;;;14.30;99.90;;;;;;4926248;29;20060;-78
2022/12/26 12:24:26;;;;;;;9.90;7.18;;;14.20;99.90;;;;;;4915562;29;20116;-78
2022/12/26 12:27:10;;;;;;;12.15;7.88;;;14.30;99.90;;;;;;4914870;29;20152;-78
2022/12/26 12:30:09;;;;;;;14.02;8.48;;;14.40;99.90;;;;;;4914209;29;20041;-78
2022/12/26 12:32:44;;;;;;;12.00;8.95;;;14.30;99.90;;;;;;4915083;29;20104;-78
2022/12/26 12:35:12;;;;;;;12.95;8.93;;;14.20;99.90;;;;;;4915270;29;20040;-78
2022/12/26 12:37:52;;;;;;;12.20;8.77;;;14.30;99.90;;;;;;4915078;29;20028;-78
2022/12/26 12:40:36;;;;;;;14.68;8.77;;;14.30;99.90;;;;;;4915072;29;20040;-78
2022/12/26 12:43:40;;;;;;;11.57;8.70;;;14.30;99.90;;;;;;4914827;29;20103;-78
2022/12/26 12:46:35;;;;;;;12.40;8.25;;;14.40;99.90;;;;;;4916457;28;20120;-78
2022/12/26 12:49:11;;;;;;;9.95;7.75;;;14.40;99.90;;;;;;4972563;28;20081;-78
2022/12/26 12:51:36;;;;;;;10.75;7.90;;;14.60;99.90;;;;;;4978553;28;20189;-78
2022/12/26 12:54:30;;;;;;;9.50;7.15;;;14.50;99.90;;;;;;5053560;28;20553;-78
2022/12/26 12:57:04;;;;;;;8.65;7.15;;;14.50;99.90;;;;;;5056362;28;20040;-78
2022/12/26 12:59:50;;;;;;;9.38;7.25;;;14.40;99.90;;;;;;5073187;28;20017;-78
2022/12/26 13:02:31;;;;;;;9.43;7.25;;;14.40;99.90;;;;;;5073118;28;20024;-78
2022/12/26 13:05:29;;;;;;;9.63;7.18;;;14.60;99.90;;;;;;5091541;28;20031;-78
2022/12/26 13:08:10;;;;;;;10.75;8.13;;;14.60;99.90;;;;;;5093456;28;20115;-78
2022/12/26 13:10:42;;;;;;;12.75;8.38;;;14.80;99.90;;;;;;5093539;28;20131;-78
2022/12/26 13:13:32;;;;;;;11.80;8.48;;;14.80;99.90;;;;;;5093247;28;20016;-78
2022/12/26 13:16:12;;;;;;;14.02;9.63;;;14.70;99.90;;;;;;5092884;28;20024;-78
2022/12/26 13:18:46;;;;;;;11.55;9.27;;;14.70;99.90;;;;;;5093356;28;20066;-78
2022/12/26 13:21:13;;;;;;;12.70;9.20;;;14.70;99.90;;;;;;5089723;28;20029;-78
2022/12/26 13:26:42;;;;;;;13.35;9.80;;;14.70;99.90;;;;;;5073058;28;20402;-78
2022/12/26 13:29:16;;;;;;;12.70;9.63;;;14.80;99.90;;;;;;5072395;28;20162;-78
2022/12/26 13:31:43;;;;;;;12.60;9.32;;;15.00;99.90;;;;;;5072364;28;20059;-78
2022/12/26 13:34:15;;;;;;;18.33;9.63;;;15.20;99.90;;;;;;5072755;28;20024;-78
2022/12/26 13:36:42;;;;;;;;;;;15.10;99.90;;;;;;5073138;28;20096;-78
2022/12/26 13:39:11;;;;;;;15.07;8.95;;;15.20;99.90;;;;;;5072700;28;19905;-78
2022/12/26 13:44:31;;;;;;;13.10;9.57;;;15.40;99.90;;;;;;5072501;28;20077;-77
2022/12/26 13:46:58;;;;;;;14.35;9.70;;;15.40;99.90;;;;;;5072461;28;20024;-78
2022/12/26 13:49:38;;;;;;;12.98;8.98;;;15.50;99.90;;;;;;5072731;28;20020;-78
2022/12/26 13:52:10;;;;;;;13.15;9.55;;;15.40;99.90;;;;;;5072605;28;20033;-78
2022/12/26 13:54:51;;;;;;;14.52;9.48;;;15.30;99.90;;;;;;5072681;28;20013;-78
2022/12/26 13:57:43;;;;;;;13.35;8.57;;;15.40;99.90;;;;;;5072390;28;20126;-78
2022/12/26 14:00:39;;;;;;;12.18;9.02;;;15.50;99.90;;;;;;5071921;28;20482;-78
2022/12/26 14:03:27;;;;;;;12.18;8.88;;;15.70;99.90;;;;;;5075235;28;20028;-77
2022/12/26 14:06:13;;;;;;;11.45;8.13;;;15.80;99.90;;;;;;5092314;28;20020;-78
2022/12/26 14:09:28;;;;;;;12.82;8.75;;;15.70;99.90;;;;;;5092737;28;20028;-78
2022/12/26 14:12:06;;;;;;;11.80;8.77;;;15.80;99.90;;;;;;5029347;28;20108;-78
2022/12/26 14:14:38;;;;;;;10.50;7.60;;;15.80;99.90;;;;;;5029627;28;20033;-78
2022/12/26 14:17:37;;;;;;;10.13;8.10;;;15.80;99.90;;;;;;5029518;28;20148;-78
2022/12/26 14:20:05;;;;;;;10.40;7.93;;;15.90;99.90;;;;;;5029852;28;20025;-78
2022/12/26 14:23:04;;;;;;;16.98;8.43;;;15.80;99.90;;;;;;5015615;28;20069;-78
2022/12/26 14:25:45;;;;;;;10.48;7.70;;;15.80;99.90;;;;;;5010108;28;20121;-78
2022/12/26 14:28:56;;;;;;;10.48;7.85;;;15.70;99.90;;;;;;5009526;28;20060;-78
2022/12/26 14:31:36;;;;;;;10.10;7.17;;;15.70;99.90;;;;;;4931977;29;20052;-78
2022/12/26 14:34:25;;;;;;;11.40;7.10;;;15.70;99.90;;;;;;4932702;29;20032;-77
2022/12/26 14:37:08;;;;;;;11.93;7.57;;;15.60;99.90;;;;;;4932465;29;20028;-77
2022/12/26 14:39:55;;;;;;;11.50;8.02;;;15.40;99.90;;;;;;4932574;29;20053;-79
2022/12/26 14:45:29;;;;;;;9.10;6.63;;;15.40;99.90;;;;;;4932539;29;20533;-77
2022/12/26 14:47:55;;;;;;;10.85;7.00;;;15.40;99.90;;;;;;4950576;28;20045;-78
2022/12/26 14:50:56;;;;;;;9.63;6.57;;;15.30;99.90;;;;;;4990384;28;20042;-77
2022/12/26 14:53:27;;;;;;;9.77;6.97;;;15.20;99.90;;;;;;4934809;29;20110;-77
2022/12/26 14:55:53;;;;;;;;;;;15.30;99.90;;;;;;4936421;29;20106;-77
2022/12/26 14:58:30;;;;;;;9.43;6.53;;;15.30;99.90;;;;;;4935485;29;20421;-78
2022/12/26 15:01:22;;;;;;;9.45;6.15;;;15.00;99.90;;;;;;4935868;29;20084;-77
2022/12/26 15:04:04;;;;;;;9.93;6.05;;;14.80;99.90;;;;;;4941299;28;20035;-77
2022/12/26 15:06:35;;;;;;;6.15;5.22;;;14.60;99.90;;;;;;4955043;28;20110;-77
2022/12/26 15:09:19;;;;;;;9.82;5.20;;;14.50;99.90;;;;;;5032931;28;20495;-77
2022/12/26 15:12:15;;;;;;;5.68;4.88;;;14.40;99.90;;;;;;5032398;28;20037;-77
2022/12/26 15:15:02;;;;;;;7.00;5.22;;;14.30;99.90;;;;;;5033082;28;20057;-77
2022/12/26 15:18:12;;;;;;;6.32;5.15;;;14.30;99.90;;;;;;5032643;28;20175;-78
2022/12/26 15:21:06;;;;;;;5.78;5.07;;;14.30;99.90;;;;;;4954788;28;20039;-78
2022/12/26 15:23:53;;;;;;;6.30;5.55;;;14.30;99.90;;;;;;4916627;29;20073;-77
2022/12/26 15:26:39;;;;;;;6.70;5.55;;;14.30;99.90;;;;;;4916370;29;20132;-78
2022/12/26 15:29:26;;;;;;;5.55;4.57;;;14.30;99.90;;;;;;4936469;28;20057;-77
2022/12/26 15:32:04;;;;;;;5.63;4.80;;;14.30;99.90;;;;;;4993162;28;20061;-77
2022/12/26 15:34:48;;;;;;;6.22;5.25;;;14.30;99.90;;;;;;4993268;28;20038;-77